createdAt,value
2022-12-15T00:02:46.393Z,5.47
2022-12-15T00:05:31.680Z,5.72
2022-12-15T00:08:24.327Z,5.90
2022-12-15T00:11:09.397Z,7.82
2022-12-15T00:13:54.876Z,9.35
2022-12-15T00:16:39.940Z,8.70
2022-12-15T00:19:26.802Z,8.35
2022-12-15T00:22:12.407Z,8.95
2022-12-15T00:24:57.656Z,7.97
2022-12-15T00:27:42.868Z,7.38
2022-12-15T00:30:28.714Z,5.25
2022-12-15T00:33:14.093Z,10.45
2022-12-15T00:36:00.995Z,9.38
2022-12-15T00:38:47.672Z,7.50
2022-12-15T00:41:17.158Z,6.35
2022-12-15T00:43:45.197Z,8.63
2022-12-15T00:46:30.970Z,7.97
2022-12-15T00:48:59.074Z,7.95
2022-12-15T00:51:45.880Z,7.68
2022-12-15T00:54:31.114Z,7.93
2022-12-15T00:57:16.536Z,8.80
2022-12-15T01:00:01.914Z,10.57
2022-12-15T01:02:47.626Z,5.57
2022-12-15T01:05:33.024Z,9.10
2022-12-15T01:08:19.987Z,9.85
2022-12-15T01:11:05.357Z,9.35
2022-12-15T01:13:50.897Z,7.78
2022-12-15T01:16:36.155Z,7.68
2022-12-15T01:19:24.320Z,6.05
2022-12-15T01:21:51.965Z,7.40
2022-12-15T01:24:21.077Z,7.00
2022-12-15T01:26:48.920Z,10.25
2022-12-15T01:29:17.062Z,6.45
2022-12-15T01:31:45.125Z,7.55
2022-12-15T01:34:20.144Z,9.23
2022-12-15T01:36:48.258Z,8.55
2022-12-15T01:39:16.436Z,11.00
2022-12-15T01:41:44.716Z,8.10
2022-12-15T01:44:17.141Z,7.80
2022-12-15T01:46:45.179Z,12.13
2022-12-15T01:49:15.798Z,11.02
2022-12-15T01:51:45.700Z,8.15
2022-12-15T01:54:16.741Z,7.93
2022-12-15T01:56:46.708Z,9.60
2022-12-15T01:59:16.303Z,6.97
2022-12-15T02:01:44.329Z,5.38
2022-12-15T02:04:19.167Z,7.03
2022-12-15T02:06:46.985Z,5.43
2022-12-15T02:09:15.240Z,8.13
2022-12-15T02:11:45.981Z,7.07
2022-12-15T02:14:18.604Z,6.88
2022-12-15T02:16:53.226Z,9.18
2022-12-15T02:19:32.254Z,10.50
2022-12-15T02:22:06.977Z,9.95
2022-12-15T02:24:46.165Z,7.60
2022-12-15T02:27:25.413Z,11.32
2022-12-15T02:30:21.180Z,6.97
2022-12-15T02:33:04.024Z,6.63
2022-12-15T02:35:38.463Z,9.88
2022-12-15T02:38:06.203Z,8.95
2022-12-15T02:40:34.468Z,7.00
2022-12-15T02:43:04.522Z,10.27
2022-12-15T02:45:36.460Z,10.32
2022-12-15T02:48:13.864Z,9.13
2022-12-15T02:50:51.891Z,9.05
2022-12-15T02:53:31.794Z,11.88
2022-12-15T02:56:03.067Z,7.63
2022-12-15T02:58:35.180Z,8.43
2022-12-15T03:01:06.903Z,12.55
2022-12-15T03:03:36.802Z,8.30
2022-12-15T03:06:07.074Z,11.88
2022-12-15T03:08:35.056Z,9.25
2022-12-15T03:11:02.953Z,6.75
2022-12-15T03:13:31.277Z,6.47
2022-12-15T03:16:00.717Z,9.77
2022-12-15T03:18:28.551Z,8.98
2022-12-15T03:20:56.261Z,8.57
2022-12-15T03:23:25.693Z,10.60
2022-12-15T03:25:53.675Z,7.93
2022-12-15T03:28:21.330Z,12.25
2022-12-15T03:30:50.394Z,8.55
2022-12-15T03:33:19.986Z,8.25
2022-12-15T03:35:48.080Z,9.82
2022-12-15T03:38:15.847Z,7.88
2022-12-15T03:40:45.429Z,9.70
2022-12-15T03:43:14.129Z,9.95
2022-12-15T03:45:42.037Z,11.68
2022-12-15T03:48:09.799Z,8.38
2022-12-15T03:50:37.538Z,11.43
2022-12-15T03:53:06.202Z,10.07
2022-12-15T03:55:35.337Z,8.73
2022-12-15T03:58:04.877Z,8.27
2022-12-15T04:00:32.721Z,10.30
2022-12-15T04:03:00.917Z,11.88
2022-12-15T04:05:30.344Z,10.00
2022-12-15T04:07:58.948Z,9.02
2022-12-15T04:10:33.632Z,9.30
2022-12-15T04:13:02.843Z,6.60
2022-12-15T04:15:32.416Z,9.60
2022-12-15T04:18:02.098Z,8.95
2022-12-15T04:20:30.059Z,8.73
2022-12-15T04:22:58.077Z,8.32
2022-12-15T04:25:43.897Z,9.98
2022-12-15T04:28:29.911Z,6.88
2022-12-15T04:31:17.768Z,8.25
2022-12-15T04:34:04.766Z,8.85
2022-12-15T04:36:50.133Z,9.05
2022-12-15T04:39:35.120Z,7.85
2022-12-15T04:42:21.197Z,9.25
2022-12-15T04:45:06.687Z,9.63
2022-12-15T04:47:53.567Z,9.65
2022-12-15T04:50:38.858Z,9.18
2022-12-15T04:53:27.663Z,10.40
2022-12-15T04:56:18.221Z,6.97
2022-12-15T04:59:04.160Z,8.75
2022-12-15T05:01:49.315Z,8.43
2022-12-15T05:04:37.138Z,7.75
2022-12-15T05:07:22.408Z,6.22
2022-12-15T05:10:14.303Z,7.72
2022-12-15T05:13:00.216Z,9.88
2022-12-15T05:15:45.183Z,9.00
2022-12-15T05:18:30.199Z,7.05
2022-12-15T05:21:17.572Z,10.43
2022-12-15T05:24:02.647Z,7.20
2022-12-15T05:26:52.342Z,8.73
2022-12-15T05:29:37.810Z,11.20
2022-12-15T05:32:05.792Z,10.13
2022-12-15T05:34:34.552Z,9.82
2022-12-15T05:37:04.966Z,7.15
2022-12-15T05:39:33.800Z,9.27
2022-12-15T05:42:01.685Z,12.98
2022-12-15T05:44:29.506Z,10.18
2022-12-15T05:46:57.207Z,12.07
2022-12-15T05:49:25.082Z,8.20
2022-12-15T05:51:53.042Z,10.32
2022-12-15T05:54:23.354Z,13.65
2022-12-15T05:56:51.263Z,7.50
2022-12-15T05:59:19.744Z,7.68
2022-12-15T06:01:48.726Z,6.10
2022-12-15T06:04:16.886Z,9.10
2022-12-15T06:06:45.339Z,8.77
2022-12-15T06:09:13.641Z,7.03
2022-12-15T06:11:42.924Z,6.25
2022-12-15T06:14:11.112Z,9.88
2022-12-15T06:16:49.823Z,11.68
2022-12-15T06:19:18.603Z,10.30
2022-12-15T06:21:46.565Z,6.38
2022-12-15T06:24:14.491Z,8.02
2022-12-15T06:26:43.999Z,11.88
2022-12-15T06:29:13.250Z,8.95
2022-12-15T06:31:42.984Z,8.23
2022-12-15T06:34:12.997Z,8.60
2022-12-15T06:36:41.513Z,12.70
2022-12-15T06:39:12.203Z,11.52
2022-12-15T06:41:40.432Z,10.20
2022-12-15T06:44:13.178Z,10.40
2022-12-15T06:46:41.380Z,12.75
2022-12-15T06:49:09.777Z,12.38
2022-12-15T06:51:37.608Z,9.43
2022-12-15T06:54:05.358Z,11.35
2022-12-15T06:56:36.074Z,10.75
2022-12-15T06:59:05.604Z,10.18
2022-12-15T07:01:35.478Z,10.07
2022-12-15T07:04:05.971Z,11.38
2022-12-15T07:06:36.752Z,12.75
2022-12-15T07:09:07.356Z,12.93
2022-12-15T07:11:35.279Z,4.72
2022-12-15T07:14:03.171Z,9.57
2022-12-15T07:16:31.843Z,11.38
2022-12-15T07:19:01.630Z,9.93
2022-12-15T07:21:29.481Z,12.98
2022-12-15T07:23:58.729Z,9.13
2022-12-15T07:26:27.536Z,10.15
2022-12-15T07:28:56.175Z,14.02
2022-12-15T07:31:24.683Z,7.93
2022-12-15T07:33:55.047Z,12.20
2022-12-15T07:36:24.480Z,10.63
2022-12-15T07:38:52.893Z,12.52
2022-12-15T07:41:21.765Z,8.07
2022-12-15T07:43:49.781Z,8.68
2022-12-15T07:46:18.020Z,12.32
2022-12-15T07:48:50.553Z,9.50
2022-12-15T07:51:20.403Z,9.68
2022-12-15T07:53:51.361Z,7.25
2022-12-15T07:56:20.671Z,11.07
2022-12-15T07:58:48.754Z,8.30
2022-12-15T08:01:16.664Z,8.82
2022-12-15T08:03:45.125Z,10.98
2022-12-15T08:06:14.349Z,10.73
2022-12-15T08:08:42.921Z,9.32
2022-12-15T08:11:13.616Z,7.43
2022-12-15T08:16:30.535Z,11.50
2022-12-15T08:18:58.561Z,9.15
2022-12-15T08:21:26.660Z,11.25
2022-12-15T08:23:55.251Z,8.43
2022-12-15T08:26:29.974Z,8.20
2022-12-15T08:29:17.391Z,10.75
2022-12-15T08:31:46.637Z,7.75
2022-12-15T08:34:14.607Z,15.30
2022-12-15T08:36:42.772Z,10.45
2022-12-15T08:39:10.885Z,13.27
2022-12-15T08:41:41.322Z,12.48
2022-12-15T08:44:09.250Z,14.88
2022-12-15T08:46:37.243Z,12.27
2022-12-15T08:49:08.627Z,17.52
2022-12-15T08:51:36.550Z,17.33
2022-12-15T08:54:04.575Z,14.05
2022-12-15T08:56:32.232Z,15.95
2022-12-15T08:59:02.417Z,13.10
2022-12-15T09:01:31.936Z,21.25
2022-12-15T09:04:00.226Z,14.43
2022-12-15T09:06:29.321Z,22.55
2022-12-15T09:08:59.545Z,18.13
2022-12-15T09:11:28.031Z,15.70
2022-12-15T09:13:56.242Z,18.55
2022-12-15T09:16:26.207Z,13.05
2022-12-15T09:18:57.670Z,21.17
2022-12-15T09:21:28.274Z,15.68
2022-12-15T09:24:01.513Z,15.75
2022-12-15T09:26:30.226Z,20.50
2022-12-15T09:28:59.239Z,18.25
2022-12-15T09:31:30.705Z,17.45
2022-12-15T09:33:59.999Z,17.25
2022-12-15T09:36:28.451Z,14.65
2022-12-15T09:38:56.830Z,17.40
2022-12-15T09:41:25.710Z,19.27
2022-12-15T09:43:56.646Z,21.45
2022-12-15T09:46:27.693Z,17.77
2022-12-15T09:49:00.612Z,17.38
2022-12-15T09:51:32.365Z,15.70
2022-12-15T09:54:03.158Z,15.85
2022-12-15T09:56:36.059Z,13.73
2022-12-15T09:59:06.725Z,15.63
2022-12-15T10:01:39.662Z,22.73
2022-12-15T10:04:14.258Z,15.50
2022-12-15T10:06:45.749Z,18.92
2022-12-15T10:09:20.008Z,18.67
2022-12-15T10:11:50.630Z,17.02
2022-12-15T10:14:22.731Z,14.85
2022-12-15T10:16:59.845Z,17.73
2022-12-15T10:19:32.727Z,18.92
2022-12-15T10:22:00.930Z,18.40
2022-12-15T10:25:08.662Z,16.23
2022-12-15T10:27:27.039Z,17.10
2022-12-15T10:29:59.999Z,16.90
2022-12-15T10:32:31.475Z,20.60
2022-12-15T10:35:01.009Z,15.98
2022-12-15T10:37:29.491Z,15.82
2022-12-15T10:39:57.445Z,14.45
2022-12-15T10:42:27.382Z,16.80
2022-12-15T10:44:56.891Z,16.17
2022-12-15T10:47:26.091Z,14.30
2022-12-15T10:49:54.577Z,13.10
2022-12-15T10:52:27.013Z,16.50
2022-12-15T10:54:56.540Z,12.05
2022-12-15T10:57:28.841Z,12.80
2022-12-15T10:59:57.642Z,15.20
2022-12-15T11:02:32.887Z,15.43
2022-12-15T11:05:02.849Z,15.57
2022-12-15T11:07:35.813Z,13.73
2022-12-15T11:10:10.256Z,14.98
2022-12-15T11:12:57.911Z,12.80
2022-12-15T11:15:36.026Z,16.52
2022-12-15T11:18:10.762Z,12.65
2022-12-15T11:20:40.364Z,14.35
2022-12-15T11:23:15.309Z,16.23
2022-12-15T11:25:44.698Z,13.18
2022-12-15T11:28:16.116Z,14.43
2022-12-15T11:30:46.209Z,12.73
2022-12-15T11:33:14.418Z,14.70
2022-12-15T11:35:54.454Z,14.32
2022-12-15T11:38:27.472Z,13.70
2022-12-15T11:40:55.722Z,16.30
2022-12-15T11:43:39.342Z,13.80
2022-12-15T11:46:27.067Z,15.77
2022-12-15T11:49:13.084Z,13.77
2022-12-15T11:51:43.730Z,14.52
2022-12-15T11:54:17.081Z,16.80
2022-12-15T11:56:49.108Z,14.15
2022-12-15T11:59:41.185Z,15.18
2022-12-15T12:02:16.464Z,14.27
2022-12-15T12:04:52.759Z,13.23
2022-12-15T12:07:23.960Z,13.48
2022-12-15T12:10:03.930Z,13.95
2022-12-15T12:12:34.824Z,14.25
2022-12-15T12:15:09.860Z,13.52
2022-12-15T12:17:41.829Z,12.90
2022-12-15T12:20:15.494Z,12.95
2022-12-15T12:22:46.380Z,14.05
2022-12-15T12:25:21.979Z,14.18
2022-12-15T12:27:53.179Z,11.48
2022-12-15T12:30:23.568Z,11.73
2022-12-15T12:32:55.255Z,12.10
2022-12-15T12:35:30.545Z,10.48
2022-12-15T12:40:59.622Z,11.02
2022-12-15T12:43:37.393Z,13.13
2022-12-15T12:46:10.515Z,11.25
2022-12-15T12:48:40.518Z,10.73
2022-12-15T12:51:16.288Z,12.45
2022-12-15T12:53:45.268Z,16.33
2022-12-15T12:56:27.944Z,11.95
2022-12-15T12:58:58.960Z,12.27
2022-12-15T13:01:27.852Z,14.45
2022-12-15T13:04:14.721Z,9.02
2022-12-15T13:07:07.755Z,14.18
2022-12-15T13:10:03.883Z,14.30
2022-12-15T13:12:50.914Z,9.13
2022-12-15T13:15:31.042Z,10.60
2022-12-15T13:18:00.975Z,11.27
2022-12-15T13:20:29.465Z,11.80
2022-12-15T13:23:19.010Z,11.13
2022-12-15T13:25:53.786Z,10.05
2022-12-15T13:28:39.503Z,9.90
2022-12-15T13:31:25.215Z,9.82
2022-12-15T13:33:57.248Z,10.73
2022-12-15T13:36:43.653Z,8.40
2022-12-15T13:39:26.378Z,9.20
2022-12-15T13:42:33.550Z,12.02
2022-12-15T13:45:05.692Z,10.52
2022-12-15T13:47:35.149Z,9.77
2022-12-15T13:50:06.812Z,8.38
2022-12-15T13:53:16.522Z,10.25
2022-12-15T13:55:40.515Z,10.00
2022-12-15T13:58:14.279Z,11.35
2022-12-15T14:00:49.548Z,9.45
2022-12-15T14:03:20.227Z,12.85
2022-12-15T14:05:53.343Z,8.85
2022-12-15T14:08:23.284Z,7.60
2022-12-15T14:10:52.919Z,10.05
2022-12-15T14:13:23.932Z,10.65
2022-12-15T14:15:53.870Z,10.85
2022-12-15T14:18:30.976Z,9.52
2022-12-15T14:20:58.948Z,10.60
2022-12-15T14:23:27.538Z,7.65
2022-12-15T14:25:56.981Z,7.18
2022-12-15T14:28:30.110Z,10.18
2022-12-15T14:30:59.004Z,10.52
2022-12-15T14:33:29.777Z,10.45
2022-12-15T14:36:01.898Z,9.02
2022-12-15T14:38:33.277Z,8.15
2022-12-15T14:41:02.947Z,7.65
2022-12-15T14:43:33.489Z,12.00
2022-12-15T14:46:07.945Z,10.55
2022-12-15T14:48:42.090Z,8.20
2022-12-15T14:51:12.922Z,9.70
2022-12-15T14:53:42.381Z,10.20
2022-12-15T14:56:13.744Z,9.52
2022-12-15T14:58:42.597Z,6.88
2022-12-15T15:01:23.768Z,9.68
2022-12-15T15:03:09.493Z,11.70
2022-12-15T15:03:58.077Z,10.07
2022-12-15T15:06:31.333Z,6.93
2022-12-15T15:09:04.430Z,7.60
2022-12-15T15:11:34.160Z,10.10
2022-12-15T15:14:04.357Z,8.23
2022-12-15T15:16:32.175Z,7.18
2022-12-15T15:19:01.785Z,8.23
2022-12-15T15:21:35.172Z,8.65
2022-12-15T15:24:03.951Z,7.90
2022-12-15T15:26:32.274Z,7.43
2022-12-15T15:29:00.182Z,10.18
2022-12-15T15:31:36.673Z,8.52
2022-12-15T15:34:08.088Z,7.75
2022-12-15T15:36:38.964Z,8.45
2022-12-15T15:39:11.880Z,8.90
2022-12-15T15:41:39.875Z,8.10
2022-12-15T15:44:12.954Z,12.63
2022-12-15T15:46:44.299Z,8.95
2022-12-15T15:49:16.289Z,9.57
2022-12-15T15:51:45.877Z,8.15
2022-12-15T15:54:15.700Z,10.40
2022-12-15T15:56:43.564Z,8.20
2022-12-15T15:59:12.656Z,8.20
2022-12-15T16:01:42.838Z,11.23
2022-12-15T16:04:11.058Z,9.23
2022-12-15T16:06:46.715Z,8.25
2022-12-15T16:09:17.178Z,7.70
2022-12-15T16:11:46.953Z,9.38
2022-12-15T16:14:15.842Z,7.70
2022-12-15T16:16:45.813Z,9.38
2022-12-15T16:19:15.775Z,9.10
2022-12-15T16:21:44.018Z,9.18
2022-12-15T16:24:14.606Z,11.90
2022-12-15T16:26:47.432Z,11.77
2022-12-15T16:29:16.658Z,10.77
2022-12-15T16:31:45.848Z,8.95
2022-12-15T16:34:14.081Z,7.45
2022-12-15T16:36:42.148Z,11.30
2022-12-15T16:39:19.973Z,11.27
2022-12-15T16:41:49.637Z,9.73
2022-12-15T16:44:17.828Z,12.25
2022-12-15T16:46:46.216Z,7.88
2022-12-15T16:49:14.020Z,9.45
2022-12-15T16:51:44.180Z,11.07
2022-12-15T16:54:18.880Z,11.25
2022-12-15T16:56:48.096Z,9.70
2022-12-15T16:59:34.838Z,10.98
2022-12-15T17:02:04.376Z,10.27
2022-12-15T17:04:32.476Z,9.10
2022-12-15T17:07:00.353Z,10.32
2022-12-15T17:09:28.309Z,10.52
2022-12-15T17:11:56.794Z,11.07
2022-12-15T17:14:26.234Z,11.77
2022-12-15T17:16:57.280Z,14.00
2022-12-15T17:19:25.278Z,13.35
2022-12-15T17:21:54.427Z,13.68
2022-12-15T17:24:22.732Z,12.57
2022-12-15T17:26:51.106Z,12.07
2022-12-15T17:29:22.459Z,14.27
2022-12-15T17:31:51.906Z,13.77
2022-12-15T17:34:25.023Z,13.20
2022-12-15T17:36:53.743Z,12.98
2022-12-15T17:39:22.619Z,13.85
2022-12-15T17:42:00.993Z,16.25
2022-12-15T17:44:34.949Z,15.75
2022-12-15T17:47:07.240Z,14.57
2022-12-15T17:49:38.364Z,15.80
2022-12-15T17:52:10.183Z,17.02
2022-12-15T17:54:38.204Z,16.25
2022-12-15T17:57:06.489Z,15.27
2022-12-15T17:59:34.600Z,16.73
2022-12-15T18:02:02.636Z,17.10
2022-12-15T18:04:33.118Z,17.80
2022-12-15T18:07:02.693Z,15.50
2022-12-15T18:09:31.200Z,19.83
2022-12-15T18:11:59.465Z,16.80
2022-12-15T18:14:29.290Z,16.73
2022-12-15T18:17:08.226Z,18.83
2022-12-15T18:19:37.571Z,19.17
2022-12-15T18:22:06.274Z,20.17
2022-12-15T18:24:34.580Z,17.27
2022-12-15T18:27:03.992Z,17.73
2022-12-15T18:29:31.793Z,18.25
2022-12-15T18:31:59.594Z,18.30
2022-12-15T18:34:27.515Z,18.65
2022-12-15T18:36:56.960Z,19.50
2022-12-15T18:39:25.308Z,16.25
2022-12-15T18:41:54.885Z,20.25
2022-12-15T18:44:24.789Z,21.92
2022-12-15T18:46:52.957Z,18.30
2022-12-15T18:49:23.566Z,21.45
2022-12-15T18:51:51.531Z,18.08
2022-12-15T18:54:21.891Z,20.63
2022-12-15T18:56:50.449Z,16.90
2022-12-15T18:59:20.103Z,22.48
2022-12-15T19:01:50.215Z,18.80
2022-12-15T19:04:18.271Z,18.30
2022-12-15T19:06:46.391Z,20.13
2022-12-15T19:09:15.807Z,19.45
2022-12-15T19:12:05.320Z,17.20
2022-12-15T19:14:49.467Z,16.42
2022-12-15T19:17:35.743Z,20.75
2022-12-15T19:20:21.836Z,19.83
2022-12-15T19:22:52.694Z,20.42
2022-12-15T19:25:25.417Z,21.65
2022-12-15T19:27:59.275Z,19.20
2022-12-15T19:30:28.411Z,20.98
2022-12-15T19:32:56.315Z,23.10
2022-12-15T19:35:24.947Z,20.20
2022-12-15T19:37:55.091Z,21.63
2022-12-15T19:40:24.095Z,17.60
2022-12-15T19:42:53.053Z,22.20
2022-12-15T19:45:26.774Z,19.90
2022-12-15T19:47:55.766Z,21.40
2022-12-15T19:50:24.928Z,23.98
2022-12-15T19:52:54.806Z,18.92
2022-12-15T19:55:25.608Z,19.00
2022-12-15T19:57:54.049Z,21.23
2022-12-15T20:00:23.417Z,16.95
2022-12-15T20:02:55.013Z,10.32
2022-12-15T20:05:23.342Z,12.60
2022-12-15T20:07:53.097Z,7.15
2022-12-15T20:10:29.476Z,10.55
2022-12-15T20:12:59.970Z,8.95
2022-12-15T20:15:27.983Z,8.40
2022-12-15T20:17:58.069Z,12.23
2022-12-15T20:20:26.971Z,11.05
2022-12-15T20:22:56.194Z,8.77
2022-12-15T20:25:26.429Z,8.73
2022-12-15T20:27:54.434Z,8.52
2022-12-15T20:30:23.846Z,9.32
2022-12-15T20:32:52.060Z,11.13
2022-12-15T20:35:22.299Z,9.20
2022-12-15T20:37:51.016Z,10.93
2022-12-15T20:40:19.983Z,9.57
2022-12-15T20:42:48.158Z,9.18
2022-12-15T20:45:18.986Z,7.00
2022-12-15T20:47:48.232Z,9.52
2022-12-15T20:50:24.289Z,8.75
2022-12-15T20:52:52.320Z,8.43
2022-12-15T20:55:23.033Z,8.75
2022-12-15T20:57:51.935Z,7.72
2022-12-15T21:00:20.292Z,8.20
2022-12-15T21:02:48.500Z,14.85
2022-12-15T21:05:17.804Z,7.82
2022-12-15T21:07:48.277Z,7.30
2022-12-15T21:10:18.074Z,7.90
2022-12-15T21:12:47.281Z,11.73
2022-12-15T21:15:16.649Z,5.47
2022-12-15T21:17:44.400Z,10.27
2022-12-15T21:20:12.639Z,8.40
2022-12-15T21:22:41.768Z,10.25
2022-12-15T21:25:20.977Z,7.68
2022-12-15T21:27:49.023Z,9.68
2022-12-15T21:30:18.323Z,9.98
2022-12-15T21:32:46.293Z,7.95
2022-12-15T21:35:17.271Z,9.43
2022-12-15T21:37:47.348Z,7.28
2022-12-15T21:40:20.641Z,11.93
2022-12-15T21:42:50.028Z,9.88
2022-12-15T21:45:18.890Z,8.57
2022-12-15T21:48:04.128Z,8.43
2022-12-15T21:50:32.085Z,11.02
2022-12-15T21:53:01.800Z,8.80
2022-12-15T21:55:31.911Z,8.52
2022-12-15T21:57:59.622Z,8.07
2022-12-15T22:00:28.396Z,8.07
2022-12-15T22:02:56.839Z,11.38
2022-12-15T22:05:29.206Z,10.68
2022-12-15T22:07:57.376Z,10.15
2022-12-15T22:10:25.899Z,11.55
2022-12-15T22:12:59.598Z,6.68
2022-12-15T22:15:29.335Z,7.97
2022-12-15T22:17:57.319Z,7.15
2022-12-15T22:20:25.891Z,7.75
2022-12-15T22:22:53.797Z,6.40
2022-12-15T22:25:24.381Z,10.25
2022-12-15T22:27:52.485Z,8.07
2022-12-15T22:30:25.691Z,8.68
2022-12-15T22:32:53.913Z,7.80
2022-12-15T22:35:24.758Z,8.52
2022-12-15T22:37:55.691Z,7.93
2022-12-15T22:40:25.259Z,10.35
2022-12-15T22:43:00.791Z,9.95
2022-12-15T22:45:30.758Z,10.77
2022-12-15T22:47:58.495Z,6.15
2022-12-15T22:50:27.815Z,10.30
2022-12-15T22:52:55.774Z,9.02
2022-12-15T22:55:24.242Z,7.60
2022-12-15T22:57:54.376Z,11.40
2022-12-15T23:00:22.189Z,9.30
2022-12-15T23:02:52.200Z,5.93
2022-12-15T23:05:21.459Z,7.80
2022-12-15T23:07:49.228Z,6.95
2022-12-15T23:10:36.447Z,12.30
2022-12-15T23:13:04.645Z,13.27
2022-12-15T23:15:50.507Z,9.07
2022-12-15T23:18:21.569Z,10.77
2022-12-15T23:20:51.775Z,6.53
2022-12-15T23:23:19.834Z,9.02
2022-12-15T23:25:47.562Z,7.45
2022-12-15T23:28:15.971Z,9.73
2022-12-15T23:30:43.988Z,5.80
2022-12-15T23:33:11.961Z,8.73
2022-12-15T23:35:42.735Z,5.80
2022-12-15T23:38:10.409Z,10.57
2022-12-15T23:40:38.358Z,8.52
2022-12-15T23:43:06.377Z,9.82
2022-12-15T23:45:34.199Z,9.77
2022-12-15T23:48:02.144Z,11.27
2022-12-15T23:50:30.042Z,9.10
2022-12-15T23:53:01.326Z,8.95
2022-12-15T23:55:29.139Z,8.70
2022-12-15T23:57:57.530Z,8.25
